Time;durP1;ratioP1;P1;durP2;ratioP2;P2;SDS_P1;SDS_P2;PMS_P1;PMS_P2;Temp;Humidity;BMP_temperature;BMP_pressure;BME280_temperature;BME280_humidity;BME280_pressure;Samples;Min_cycle;Max_cycle;Signal;HPM_P1;HPM_P2
2020/12/04 00:01:53;;;;;;;;;;;22.40;36.60;;;;;;1633818;72;773;-71
2020/12/04 00:03:54;;;;;;;;;;;22.50;36.80;;;;;;1635690;71;785;-70
2020/12/04 00:05:56;;;;;;;;;;;22.40;36.60;;;;;;1640667;71;783;-70
2020/12/04 00:07:58;;;;;;;;;;;22.50;36.80;;;;;;1631078;71;696;-69
2020/12/04 00:10:00;;;;;;;;;;;22.50;36.80;;;;;;1633697;71;1205;-70
2020/12/04 00:12:02;;;;;;;;;;;22.40;36.70;;;;;;1633458;72;707;-69
2020/12/04 00:14:04;;;;;;;;;;;22.40;36.70;;;;;;1640831;72;763;-70
2020/12/04 00:16:06;;;;;;;;;;;22.50;36.80;;;;;;1633553;72;787;-70
2020/12/04 00:18:07;;;;;;;;;;;22.40;36.70;;;;;;1639503;72;697;-69
2020/12/04 00:20:09;;;;;;;;;;;22.40;36.70;;;;;;1633767;71;1923;-70
2020/12/04 00:22:11;;;;;;;;;;;22.40;36.70;;;;;;1636810;71;697;-71
2020/12/04 00:24:13;;;;;;;;;;;22.40;36.70;;;;;;1635301;72;769;-71
2020/12/04 00:26:15;;;;;;;;;;;22.40;36.80;;;;;;1637317;71;800;-69
2020/12/04 00:28:17;;;;;;;;;;;22.40;36.80;;;;;;1633271;71;785;-69
2020/12/04 00:30:19;;;;;;;;;;;22.40;36.70;;;;;;1619593;73;1138;-70
2020/12/04 00:32:20;;;;;;;;;;;22.40;36.60;;;;;;1630770;71;696;-70
2020/12/04 00:34:23;;;;;;;;;;;22.40;36.60;;;;;;1633663;71;730;-70
2020/12/04 00:36:28;;;;;;;;;;;22.40;36.70;;;;;;1633664;72;780;-66
2020/12/04 00:38:28;;;;;;;;;;;22.50;36.70;;;;;;1632054;73;1621;-69
2020/12/04 00:40:30;;;;;;;;;;;22.40;36.60;;;;;;1633378;71;1939;-70
2020/12/04 00:42:32;;;;;;;;;;;22.50;36.70;;;;;;1642538;72;669;-70
2020/12/04 00:44:34;;;;;;;;;;;22.40;36.60;;;;;;1635892;72;665;-69
2020/12/04 00:46:36;;;;;;;;;;;22.50;36.70;;;;;;1641358;71;722;-70
2020/12/04 00:48:38;;;;;;;;;;;22.40;36.60;;;;;;1633060;71;754;-69
2020/12/04 00:50:40;;;;;;;;;;;22.40;36.70;;;;;;1634024;71;1089;-70
2020/12/04 00:52:41;;;;;;;;;;;22.40;36.70;;;;;;1634150;71;722;-67
2020/12/04 00:54:43;;;;;;;;;;;22.40;36.70;;;;;;1643582;71;772;-69
2020/12/04 00:56:45;;;;;;;;;;;22.40;36.80;;;;;;1628474;73;761;-69
2020/12/04 00:58:47;;;;;;;;;;;22.40;36.70;;;;;;1631584;72;765;-68
2020/12/04 01:00:49;;;;;;;;;;;22.30;36.70;;;;;;1632618;71;1929;-69
2020/12/04 01:02:51;;;;;;;;;;;22.40;36.70;;;;;;1640525;72;695;-70
2020/12/04 01:04:53;;;;;;;;;;;22.40;36.70;;;;;;1632561;73;776;-70
2020/12/04 01:06:55;;;;;;;;;;;22.40;36.80;;;;;;1646573;72;758;-69
2020/12/04 01:08:57;;;;;;;;;;;22.40;36.80;;;;;;1629570;71;691;-70
2020/12/04 01:10:59;;;;;;;;;;;22.40;36.70;;;;;;1627558;71;1154;-70
2020/12/04 01:13:00;;;;;;;;;;;22.40;36.70;;;;;;1630530;71;703;-70
2020/12/04 01:15:03;;;;;;;;;;;22.40;36.70;;;;;;1633701;71;738;-70
2020/12/04 01:17:04;;;;;;;;;;;22.40;36.60;;;;;;1633698;71;788;-70
2020/12/04 01:19:06;;;;;;;;;;;22.40;36.60;;;;;;1632417;71;677;-70
2020/12/04 01:21:08;;;;;;;;;;;22.40;36.60;;;;;;1633841;71;1925;-69
2020/12/04 01:23:10;;;;;;;;;;;22.40;36.60;;;;;;1631143;71;807;-69
2020/12/04 01:25:12;;;;;;;;;;;22.40;36.60;;;;;;1636230;72;780;-70
2020/12/04 01:27:14;;;;;;;;;;;22.40;36.60;;;;;;1634684;71;702;-70
2020/12/04 01:29:16;;;;;;;;;;;22.40;36.50;;;;;;1633335;71;666;-70
2020/12/04 01:31:18;;;;;;;;;;;22.40;36.60;;;;;;1633013;71;1100;-70
2020/12/04 01:33:20;;;;;;;;;;;22.40;36.60;;;;;;1628873;71;764;-70
2020/12/04 01:35:21;;;;;;;;;;;22.40;36.60;;;;;;1626605;71;778;-70
2020/12/04 01:37:23;;;;;;;;;;;22.50;36.70;;;;;;1632562;71;669;-70
2020/12/04 01:39:25;;;;;;;;;;;22.40;36.50;;;;;;1631574;71;595;-71
2020/12/04 01:41:27;;;;;;;;;;;22.40;36.60;;;;;;1633705;71;1944;-72
2020/12/04 01:43:29;;;;;;;;;;;22.50;36.70;;;;;;1639305;71;941;-71
2020/12/04 01:45:35;;;;;;;;;;;22.40;36.50;;;;;;1632730;72;749;-71
2020/12/04 01:47:34;;;;;;;;;;;22.40;36.40;;;;;;1631182;73;1433;-71
2020/12/04 01:49:36;;;;;;;;;;;22.50;36.50;;;;;;1631959;71;1141;-71
2020/12/04 01:51:38;;;;;;;;;;;22.50;36.50;;;;;;1627039;73;792;-71
2020/12/04 01:53:40;;;;;;;;;;;22.50;36.50;;;;;;1633010;72;733;-71
2020/12/04 01:55:42;;;;;;;;;;;22.40;36.30;;;;;;1633191;71;747;-71
2020/12/04 01:57:47;;;;;;;;;;;22.40;36.30;;;;;;1633367;72;642;-71
2020/12/04 01:59:49;;;;;;;;;;;22.50;36.30;;;;;;1622594;72;1913;-70
2020/12/04 02:01:51;;;;;;;;;;;22.50;36.40;;;;;;1633884;72;708;-71
2020/12/04 02:03:52;;;;;;;;;;;22.50;36.40;;;;;;1631623;72;824;-67
2020/12/04 02:05:56;;;;;;;;;;;22.40;36.30;;;;;;1631589;72;716;-67
2020/12/04 02:08:18;;;;;;;;;;;22.40;36.30;;;;;;1637377;71;1599;-70
2020/12/04 02:10:21;;;;;;;;;;;22.40;36.30;;;;;;1645799;70;1706;-71
2020/12/04 02:12:23;;;;;;;;;;;22.40;36.20;;;;;;1632934;71;785;-70
2020/12/04 02:14:25;;;;;;;;;;;22.40;36.20;;;;;;1633374;72;771;-70
2020/12/04 02:16:27;;;;;;;;;;;22.40;36.20;;;;;;1632823;71;905;-70
2020/12/04 02:18:29;;;;;;;;;;;22.40;36.20;;;;;;1632170;71;845;-69
2020/12/04 02:20:34;;;;;;;;;;;22.40;36.20;;;;;;1631433;71;1931;-69
2020/12/04 02:22:36;;;;;;;;;;;22.40;36.20;;;;;;1632740;71;785;-70
2020/12/04 02:24:39;;;;;;;;;;;22.40;36.20;;;;;;1630536;71;782;-70
2020/12/04 02:26:44;;;;;;;;;;;22.40;36.20;;;;;;1628859;71;751;-70
2020/12/04 02:28:44;;;;;;;;;;;22.50;36.30;;;;;;1635447;71;1590;-70
2020/12/04 02:30:46;;;;;;;;;;;22.40;36.20;;;;;;1641777;71;1156;-69
2020/12/04 02:32:48;;;;;;;;;;;22.40;36.20;;;;;;1643716;70;786;-67
2020/12/04 02:34:50;;;;;;;;;;;22.40;36.20;;;;;;1632597;71;785;-67
2020/12/04 02:36:56;;;;;;;;;;;22.40;36.20;;;;;;1633253;71;737;-67
2020/12/04 02:38:58;;;;;;;;;;;22.40;36.20;;;;;;1632732;71;688;-68
2020/12/04 02:41:00;;;;;;;;;;;22.40;36.20;;;;;;1634244;71;1939;-68
2020/12/04 02:43:01;;;;;;;;;;;22.40;36.30;;;;;;1629553;71;708;-69
2020/12/04 02:45:03;;;;;;;;;;;22.40;36.20;;;;;;1632277;71;770;-68
2020/12/04 02:47:05;;;;;;;;;;;22.40;36.20;;;;;;1630613;71;717;-69
2020/12/04 02:49:07;;;;;;;;;;;22.40;36.30;;;;;;1626373;71;726;-70
2020/12/04 02:51:09;;;;;;;;;;;22.40;36.30;;;;;;1633836;71;1133;-69
2020/12/04 02:53:11;;;;;;;;;;;22.40;36.30;;;;;;1629849;71;762;-68
2020/12/04 02:55:13;;;;;;;;;;;22.40;36.20;;;;;;1636313;71;707;-69
2020/12/04 02:57:14;;;;;;;;;;;22.40;36.20;;;;;;1615339;71;718;-69
2020/12/04 02:59:16;;;;;;;;;;;22.40;36.30;;;;;;1632489;71;728;-69
2020/12/04 03:01:18;;;;;;;;;;;22.40;36.30;;;;;;1627730;72;1944;-69
2020/12/04 03:03:20;;;;;;;;;;;22.40;36.30;;;;;;1634009;72;757;-69
2020/12/04 03:05:22;;;;;;;;;;;22.40;36.30;;;;;;1633224;71;729;-69
2020/12/04 03:07:24;;;;;;;;;;;22.40;36.30;;;;;;1632248;71;671;-69
2020/12/04 03:09:26;;;;;;;;;;;22.40;36.30;;;;;;1632591;71;770;-69
2020/12/04 03:11:27;;;;;;;;;;;22.40;36.30;;;;;;1634847;71;1061;-70
2020/12/04 03:13:29;;;;;;;;;;;22.40;36.30;;;;;;1633898;71;784;-69
2020/12/04 03:15:31;;;;;;;;;;;22.40;36.30;;;;;;1633761;71;737;-71
2020/12/04 03:17:33;;;;;;;;;;;22.30;36.30;;;;;;1634779;71;734;-70
2020/12/04 03:19:35;;;;;;;;;;;22.30;36.30;;;;;;1633133;71;1017;-70
2020/12/04 03:21:37;;;;;;;;;;;22.30;36.40;;;;;;1633654;71;1917;-70
2020/12/04 03:23:39;;;;;;;;;;;22.30;36.50;;;;;;1634685;71;687;-70
2020/12/04 03:25:41;;;;;;;;;;;22.30;36.60;;;;;;1633757;71;687;-70
2020/12/04 03:27:42;;;;;;;;;;;22.40;36.50;;;;;;1632318;71;681;-69
2020/12/04 03:29:47;;;;;;;;;;;22.40;36.40;;;;;;1630018;71;1126;-69
2020/12/04 03:31:48;;;;;;;;;;;22.30;36.50;;;;;;1633467;71;1648;-69
2020/12/04 03:33:50;;;;;;;;;;;22.40;36.50;;;;;;1628633;71;807;-69
2020/12/04 03:35:51;;;;;;;;;;;22.30;36.50;;;;;;1633687;71;791;-70
2020/12/04 03:37:53;;;;;;;;;;;22.40;36.50;;;;;;1626614;71;819;-69
2020/12/04 03:39:55;;;;;;;;;;;22.40;36.40;;;;;;1633030;71;1166;-68
2020/12/04 03:41:57;;;;;;;;;;;22.30;36.40;;;;;;1628579;71;1933;-69
2020/12/04 03:43:59;;;;;;;;;;;22.40;36.40;;;;;;1635731;71;758;-69
2020/12/04 03:46:01;;;;;;;;;;;22.30;36.40;;;;;;1644775;72;701;-69
2020/12/04 03:48:03;;;;;;;;;;;22.40;36.40;;;;;;1643040;71;706;-68
2020/12/04 03:50:05;;;;;;;;;;;22.40;36.30;;;;;;1633181;71;1124;-67
2020/12/04 03:52:07;;;;;;;;;;;22.40;36.30;;;;;;1635857;71;751;-68
2020/12/04 03:54:10;;;;;;;;;;;22.40;36.30;;;;;;1635419;71;898;-68
2020/12/04 03:56:12;;;;;;;;;;;22.40;36.40;;;;;;1626393;71;701;-69
2020/12/04 03:58:14;;;;;;;;;;;22.40;36.40;;;;;;1632669;71;731;-70
2020/12/04 04:00:16;;;;;;;;;;;22.30;36.40;;;;;;1623440;71;1144;-69
2020/12/04 04:02:18;;;;;;;;;;;22.40;36.40;;;;;;1616290;71;1938;-69
2020/12/04 04:04:19;;;;;;;;;;;22.40;36.40;;;;;;1633761;71;788;-67
2020/12/04 04:06:21;;;;;;;;;;;22.40;36.30;;;;;;1632549;71;772;-68
2020/12/04 04:08:23;;;;;;;;;;;22.30;36.40;;;;;;1630496;71;784;-68
2020/12/04 04:10:25;;;;;;;;;;;22.40;36.30;;;;;;1634253;71;1097;-68
2020/12/04 04:12:27;;;;;;;;;;;22.40;36.40;;;;;;1633799;71;700;-68
2020/12/04 04:14:29;;;;;;;;;;;22.40;36.30;;;;;;1633730;71;667;-69
2020/12/04 04:16:31;;;;;;;;;;;22.40;36.40;;;;;;1617928;71;703;-69
2020/12/04 04:18:33;;;;;;;;;;;22.40;36.40;;;;;;1632387;71;644;-69
2020/12/04 04:20:35;;;;;;;;;;;22.40;36.30;;;;;;1633651;71;1936;-69
2020/12/04 04:22:37;;;;;;;;;;;22.40;36.30;;;;;;1630362;71;1070;-69
2020/12/04 04:24:39;;;;;;;;;;;22.40;36.30;;;;;;1632770;71;833;-68
2020/12/04 04:26:40;;;;;;;;;;;22.40;36.40;;;;;;1633676;71;723;-67
2020/12/04 04:28:42;;;;;;;;;;;22.40;36.40;;;;;;1619386;71;792;-67
2020/12/04 04:30:44;;;;;;;;;;;22.40;36.40;;;;;;1627417;71;1156;-67
2020/12/04 04:32:46;;;;;;;;;;;22.40;36.40;;;;;;1633615;71;713;-67
2020/12/04 04:34:48;;;;;;;;;;;22.40;36.40;;;;;;1631097;71;746;-66
2020/12/04 04:36:50;;;;;;;;;;;22.40;36.40;;;;;;1636777;71;778;-66
2020/12/04 04:38:53;;;;;;;;;;;22.50;36.50;;;;;;1628337;71;733;-66
2020/12/04 04:40:58;;;;;;;;;;;22.40;36.40;;;;;;1631194;71;1936;-69
2020/12/04 04:43:07;;;;;;;;;;;22.50;36.60;;;;;;1629164;72;725;-67
2020/12/04 04:45:08;;;;;;;;;;;22.50;36.50;;;;;;1625049;71;716;-67
2020/12/04 04:47:14;;;;;;;;;;;22.40;36.40;;;;;;1644770;71;731;-66
2020/12/04 04:49:26;;;;;;;;;;;22.50;36.50;;;;;;1640270;71;831;-68
2020/12/04 04:51:22;;;;;;;;;;;22.50;36.60;;;;;;1634850;71;1831;-68
2020/12/04 04:53:24;;;;;;;;;;;22.50;36.70;;;;;;1632851;71;669;-68
2020/12/04 04:55:26;;;;;;;;;;;22.50;36.70;;;;;;1633535;71;659;-67
2020/12/04 04:57:28;;;;;;;;;;;22.50;36.70;;;;;;1628157;71;708;-67
2020/12/04 04:59:29;;;;;;;;;;;22.50;36.70;;;;;;1633520;71;789;-68
2020/12/04 05:01:32;;;;;;;;;;;22.50;36.60;;;;;;1628873;71;1940;-67
2020/12/04 05:03:34;;;;;;;;;;;22.50;36.60;;;;;;1631908;71;708;-68
2020/12/04 05:05:40;;;;;;;;;;;22.60;36.60;;;;;;1633593;71;775;-67
2020/12/04 05:07:42;;;;;;;;;;;22.50;36.60;;;;;;1627527;71;675;-67
2020/12/04 05:09:44;;;;;;;;;;;22.50;36.60;;;;;;1629481;71;1099;-68
2020/12/04 05:11:56;;;;;;;;;;;22.50;36.60;;;;;;1633576;71;705;-66
2020/12/04 05:14:13;;;;;;;;;;;22.50;36.50;;;;;;1629468;71;723;-70
2020/12/04 05:16:30;;;;;;;;;;;22.50;36.50;;;;;;1629872;71;726;-67
2020/12/04 05:18:32;;;;;;;;;;;22.50;36.60;;;;;;1631129;71;686;-68
2020/12/04 05:20:35;;;;;;;;;;;22.50;36.60;;;;;;1632290;71;1122;-67
2020/12/04 05:22:36;;;;;;;;;;;22.50;36.60;;;;;;1627541;71;1935;-67
2020/12/04 05:24:38;;;;;;;;;;;22.40;36.50;;;;;;1636224;70;776;-68
2020/12/04 05:26:40;;;;;;;;;;;22.50;36.70;;;;;;1636169;71;761;-69
2020/12/04 05:28:42;;;;;;;;;;;22.50;36.70;;;;;;1633927;71;727;-67
2020/12/04 05:30:46;;;;;;;;;;;22.50;36.60;;;;;;1597777;73;1194;-70
2020/12/04 05:32:49;;;;;;;;;;;22.50;36.60;;;;;;1630593;71;1692;-66
2020/12/04 05:34:51;;;;;;;;;;;22.50;36.60;;;;;;1631684;71;1661;-68
2020/12/04 05:36:53;;;;;;;;;;;22.50;36.60;;;;;;1632833;71;757;-68
2020/12/04 05:38:55;;;;;;;;;;;22.50;36.70;;;;;;1632119;71;707;-66
2020/12/04 05:41:09;;;;;;;;;;;22.50;36.60;;;;;;1632404;71;1193;-67
2020/12/04 05:43:11;;;;;;;;;;;22.50;36.70;;;;;;1625392;71;758;-68
2020/12/04 05:45:13;;;;;;;;;;;22.60;36.60;;;;;;1633252;71;750;-67
2020/12/04 05:47:15;;;;;;;;;;;22.50;36.70;;;;;;1632108;71;629;-67
2020/12/04 05:49:17;;;;;;;;;;;22.50;36.70;;;;;;1635676;71;788;-68
2020/12/04 05:51:19;;;;;;;;;;;22.50;36.70;;;;;;1640179;71;1133;-66
2020/12/04 05:53:21;;;;;;;;;;;22.60;36.70;;;;;;1625869;71;776;-67
2020/12/04 05:55:23;;;;;;;;;;;22.50;36.70;;;;;;1631504;71;683;-67
2020/12/04 05:57:25;;;;;;;;;;;22.50;36.60;;;;;;1634311;71;719;-66
2020/12/04 05:59:27;;;;;;;;;;;22.60;36.70;;;;;;1634254;71;688;-67
2020/12/04 06:01:29;;;;;;;;;;;22.50;36.70;;;;;;1610015;71;1937;-65
2020/12/04 06:03:30;;;;;;;;;;;22.50;36.70;;;;;;1634584;71;758;-66
2020/12/04 06:05:32;;;;;;;;;;;22.50;36.70;;;;;;1640024;72;811;-65
2020/12/04 06:07:34;;;;;;;;;;;22.50;36.70;;;;;;1644683;70;768;-67
2020/12/04 06:09:36;;;;;;;;;;;22.50;36.80;;;;;;1651364;71;1133;-65
2020/12/04 06:11:43;;;;;;;;;;;22.60;36.70;;;;;;1634499;71;733;-63
2020/12/04 06:13:44;;;;;;;;;;;22.50;36.80;;;;;;1642246;71;1701;-65
2020/12/04 06:15:46;;;;;;;;;;;22.50;36.90;;;;;;1633515;71;702;-63
2020/12/04 06:17:49;;;;;;;;;;;22.50;36.90;;;;;;1632433;71;794;-64
2020/12/04 06:19:50;;;;;;;;;;;22.60;36.80;;;;;;1632283;71;1141;-66
2020/12/04 06:21:52;;;;;;;;;;;22.50;36.80;;;;;;1628967;71;1924;-70
2020/12/04 06:24:10;;;;;;;;;;;22.50;36.80;;;;;;1638877;71;711;-68
2020/12/04 06:26:10;;;;;;;;;;;22.50;36.90;;;;;;1632255;71;1134;-68
2020/12/04 06:28:16;;;;;;;;;;;22.50;36.90;;;;;;1632528;71;663;-66
2020/12/04 06:30:18;;;;;;;;;;;22.50;37.00;;;;;;1630438;71;1167;-66
2020/12/04 06:32:36;;;;;;;;;;;22.50;36.90;;;;;;1632529;71;790;-67
2020/12/04 06:34:39;;;;;;;;;;;22.50;36.80;;;;;;1634954;71;716;-70
2020/12/04 06:36:41;;;;;;;;;;;22.50;36.80;;;;;;1598619;73;965;-68
2020/12/04 06:38:43;;;;;;;;;;;22.60;36.70;;;;;;1638978;71;821;-66
2020/12/04 06:40:45;;;;;;;;;;;22.50;36.70;;;;;;1645812;71;1212;-67
2020/12/04 06:42:47;;;;;;;;;;;22.60;36.50;;;;;;1648167;71;1932;-67
2020/12/04 06:44:50;;;;;;;;;;;22.50;36.70;;;;;;1632865;71;728;-69
2020/12/04 06:46:53;;;;;;;;;;;22.50;36.50;;;;;;1645373;71;716;-67
2020/12/04 06:49:09;;;;;;;;;;;22.50;36.60;;;;;;1637252;71;697;-67
2020/12/04 06:51:11;;;;;;;;;;;22.70;36.80;;;;;;1633688;71;1122;-66
2020/12/04 06:53:13;;;;;;;;;;;22.60;36.50;;;;;;1591940;73;733;-66
2020/12/04 06:55:15;;;;;;;;;;;22.60;37.00;;;;;;1609474;73;839;-67
2020/12/04 06:57:18;;;;;;;;;;;22.80;37.10;;;;;;1611498;73;739;-68
2020/12/04 06:59:24;;;;;;;;;;;22.90;37.50;;;;;;1615666;73;790;-68
2020/12/04 07:01:26;;;;;;;;;;;22.90;37.30;;;;;;1593473;73;1733;-65
2020/12/04 07:03:28;;;;;;;;;;;22.90;37.20;;;;;;1609801;73;1944;-65
2020/12/04 07:05:32;;;;;;;;;;;23.00;37.10;;;;;;1608100;73;720;-66
2020/12/04 07:07:33;;;;;;;;;;;23.00;36.80;;;;;;1606445;73;1697;-65
2020/12/04 07:09:35;;;;;;;;;;;23.10;36.80;;;;;;1609583;73;1136;-65
2020/12/04 07:11:37;;;;;;;;;;;23.10;36.60;;;;;;1608925;73;754;-66
2020/12/04 07:13:39;;;;;;;;;;;23.10;36.50;;;;;;1604899;73;676;-67
2020/12/04 07:15:41;;;;;;;;;;;23.10;36.30;;;;;;1607992;73;721;-67
2020/12/04 07:17:43;;;;;;;;;;;23.10;36.10;;;;;;1602604;73;762;-68
2020/12/04 07:19:45;;;;;;;;;;;23.10;36.00;;;;;;1602891;73;1139;-67
2020/12/04 07:21:47;;;;;;;;;;;23.10;35.80;;;;;;1609966;73;1926;-66
2020/12/04 07:23:51;;;;;;;;;;;23.20;35.70;;;;;;1609806;73;712;-67
2020/12/04 07:25:52;;;;;;;;;;;23.20;35.50;;;;;;1609384;73;742;-67
2020/12/04 07:27:54;;;;;;;;;;;23.20;35.40;;;;;;1609706;73;743;-68
2020/12/04 07:29:56;;;;;;;;;;;23.20;35.20;;;;;;1609467;73;1127;-67
2020/12/04 07:31:58;;;;;;;;;;;23.20;35.10;;;;;;1609863;73;803;-71
2020/12/04 07:34:00;;;;;;;;;;;23.20;34.90;;;;;;1606756;73;731;-73
2020/12/04 07:36:05;;;;;;;;;;;23.00;34.00;;;;;;1609937;73;719;-71
2020/12/04 07:38:07;;;;;;;;;;;22.90;33.50;;;;;;1609894;73;808;-74
2020/12/04 07:40:09;;;;;;;;;;;22.80;32.40;;;;;;1609980;72;1221;-73
2020/12/04 07:42:12;;;;;;;;;;;22.70;31.80;;;;;;1609638;73;1928;-74
2020/12/04 07:44:14;;;;;;;;;;;22.50;30.70;;;;;;1608795;73;743;-72
2020/12/04 07:46:17;;;;;;;;;;;22.50;30.60;;;;;;1609758;73;704;-71
2020/12/04 07:48:19;;;;;;;;;;;22.40;30.30;;;;;;1601418;72;824;-72
2020/12/04 07:50:21;;;;;;;;;;;22.30;30.10;;;;;;1593802;73;1139;-72
2020/12/04 07:52:23;;;;;;;;;;;22.30;30.00;;;;;;1594663;73;679;-72
2020/12/04 07:54:26;;;;;;;;;;;22.20;29.70;;;;;;1594592;73;780;-71
2020/12/04 07:56:28;;;;;;;;;;;22.20;29.50;;;;;;1599724;73;666;-72
2020/12/04 07:58:29;;;;;;;;;;;22.10;29.50;;;;;;1595402;73;675;-74
2020/12/04 08:00:32;;;;;;;;;;;22.10;29.40;;;;;;1590363;73;1155;-74
2020/12/04 08:02:34;;;;;;;;;;;22.10;29.20;;;;;;1603958;73;1956;-73
2020/12/04 08:04:35;;;;;;;;;;;22.00;29.10;;;;;;1589148;73;730;-74
2020/12/04 08:06:37;;;;;;;;;;;22.00;29.00;;;;;;1588968;73;730;-73
2020/12/04 08:08:39;;;;;;;;;;;22.00;29.00;;;;;;1603424;73;877;-74
2020/12/04 08:10:41;;;;;;;;;;;22.00;28.90;;;;;;1603030;72;1127;-73
2020/12/04 08:12:43;;;;;;;;;;;21.90;28.80;;;;;;1591626;73;694;-73
2020/12/04 08:14:49;;;;;;;;;;;21.90;28.80;;;;;;1588404;73;675;-73
2020/12/04 08:16:55;;;;;;;;;;;21.90;28.80;;;;;;1588138;73;925;-73
2020/12/04 08:18:59;;;;;;;;;;;21.90;28.70;;;;;;1589696;73;996;-73
2020/12/04 08:21:04;;;;;;;;;;;21.90;28.70;;;;;;1591640;72;1083;-73
2020/12/04 08:23:06;;;;;;;;;;;21.90;28.70;;;;;;1594191;73;1940;-74
2020/12/04 08:25:08;;;;;;;;;;;21.90;28.70;;;;;;1589191;73;809;-73
2020/12/04 08:27:11;;;;;;;;;;;21.80;28.60;;;;;;1607256;73;730;-71
2020/12/04 08:29:13;;;;;;;;;;;21.80;28.40;;;;;;1609052;73;712;-74
2020/12/04 08:31:24;;;;;;;;;;;21.80;28.60;;;;;;1609051;73;1123;-73
2020/12/04 08:33:26;;;;;;;;;;;21.80;28.50;;;;;;1610088;73;671;-71
2020/12/04 08:35:32;;;;;;;;;;;21.80;28.60;;;;;;1610095;73;700;-72
2020/12/04 08:37:34;;;;;;;;;;;21.70;28.50;;;;;;1599564;73;1731;-72
2020/12/04 08:39:38;;;;;;;;;;;21.70;28.50;;;;;;1608026;72;1189;-71
2020/12/04 08:41:40;;;;;;;;;;;21.80;28.50;;;;;;1607160;73;1033;-74
2020/12/04 08:43:42;;;;;;;;;;;21.80;28.50;;;;;;1607516;73;1924;-73
2020/12/04 08:45:44;;;;;;;;;;;21.70;28.30;;;;;;1600536;73;697;-74
2020/12/04 08:47:46;;;;;;;;;;;21.70;28.40;;;;;;1607436;73;820;-73
2020/12/04 08:49:54;;;;;;;;;;;21.70;28.40;;;;;;1607660;73;1093;-73
2020/12/04 08:51:54;;;;;;;;;;;21.70;28.30;;;;;;1601951;73;1114;-72
2020/12/04 08:53:56;;;;;;;;;;;21.70;28.10;;;;;;1609592;73;669;-73
2020/12/04 08:55:59;;;;;;;;;;;21.70;28.10;;;;;;1609093;73;685;-72
2020/12/04 08:58:01;;;;;;;;;;;21.70;28.00;;;;;;1608989;73;739;-71
2020/12/04 09:00:04;;;;;;;;;;;21.70;28.00;;;;;;1602804;72;1091;-73
2020/12/04 09:02:05;;;;;;;;;;;21.70;28.00;;;;;;1609003;73;712;-73
2020/12/04 09:04:07;;;;;;;;;;;21.60;27.90;;;;;;1608647;73;1952;-74
2020/12/04 09:06:09;;;;;;;;;;;21.60;28.00;;;;;;1607136;73;706;-72
2020/12/04 09:08:11;;;;;;;;;;;21.50;27.90;;;;;;1599139;73;783;-74
2020/12/04 09:10:14;;;;;;;;;;;21.60;27.90;;;;;;1600014;73;1125;-72
2020/12/04 09:12:16;;;;;;;;;;;21.60;27.80;;;;;;1602068;73;743;-65
2020/12/04 09:14:17;;;;;;;;;;;21.70;27.80;;;;;;1605589;73;714;-67
2020/12/04 09:16:19;;;;;;;;;;;21.60;27.60;;;;;;1610170;73;720;-68
2020/12/04 09:18:21;;;;;;;;;;;21.60;27.60;;;;;;1606262;73;779;-65
2020/12/04 09:20:24;;;;;;;;;;;21.60;27.60;;;;;;1609731;72;1094;-65
2020/12/04 09:22:26;;;;;;;;;;;21.60;27.60;;;;;;1600685;73;1903;-66
2020/12/04 09:24:28;;;;;;;;;;;21.60;27.60;;;;;;1606027;73;655;-67
2020/12/04 09:26:31;;;;;;;;;;;21.60;27.60;;;;;;1607995;73;1005;-68
2020/12/04 09:28:33;;;;;;;;;;;21.50;27.60;;;;;;1609873;73;754;-64
2020/12/04 09:30:35;;;;;;;;;;;21.50;27.70;;;;;;1609934;72;1193;-66
2020/12/04 09:32:36;;;;;;;;;;;21.60;27.60;;;;;;1605348;73;705;-66
2020/12/04 09:34:39;;;;;;;;;;;21.50;27.60;;;;;;1600243;73;668;-67
2020/12/04 09:36:41;;;;;;;;;;;21.40;27.50;;;;;;1608646;73;826;-66
2020/12/04 09:38:43;;;;;;;;;;;21.40;27.40;;;;;;1609866;73;799;-67
2020/12/04 09:40:45;;;;;;;;;;;21.50;27.60;;;;;;1601320;72;1217;-68
2020/12/04 09:42:47;;;;;;;;;;;21.50;27.60;;;;;;1595733;73;1929;-68
2020/12/04 09:44:48;;;;;;;;;;;21.50;27.60;;;;;;1608491;73;752;-67
2020/12/04 09:46:51;;;;;;;;;;;21.40;27.50;;;;;;1605227;73;735;-67
2020/12/04 09:48:52;;;;;;;;;;;21.40;27.60;;;;;;1607643;73;700;-66
2020/12/04 09:50:54;;;;;;;;;;;21.40;27.40;;;;;;1608328;73;1120;-67
2020/12/04 09:52:56;;;;;;;;;;;21.40;27.50;;;;;;1609511;73;806;-67
2020/12/04 09:54:58;;;;;;;;;;;21.30;27.50;;;;;;1609930;73;865;-65
2020/12/04 09:57:00;;;;;;;;;;;21.30;27.50;;;;;;1607350;73;797;-66
2020/12/04 09:59:02;;;;;;;;;;;21.30;27.40;;;;;;1610035;73;760;-65
2020/12/04 10:01:04;;;;;;;;;;;21.40;27.50;;;;;;1606424;73;1127;-64
2020/12/04 10:03:06;;;;;;;;;;;21.30;27.50;;;;;;1603547;73;1926;-65
2020/12/04 10:05:07;;;;;;;;;;;21.30;27.50;;;;;;1609948;73;1057;-65
2020/12/04 10:07:09;;;;;;;;;;;21.30;27.40;;;;;;1610098;73;789;-64
2020/12/04 10:09:11;;;;;;;;;;;21.30;27.50;;;;;;1597007;73;604;-66
2020/12/04 10:11:13;;;;;;;;;;;21.30;27.50;;;;;;1610105;72;1197;-66
2020/12/04 10:13:15;;;;;;;;;;;21.30;27.50;;;;;;1608955;73;755;-66
2020/12/04 10:15:17;;;;;;;;;;;21.30;27.50;;;;;;1599259;73;726;-66
2020/12/04 10:17:19;;;;;;;;;;;21.30;27.60;;;;;;1605159;73;711;-66
2020/12/04 10:19:21;;;;;;;;;;;21.20;27.40;;;;;;1605258;73;781;-65
2020/12/04 10:21:23;;;;;;;;;;;21.30;27.60;;;;;;1594891;73;1080;-65
2020/12/04 10:23:25;;;;;;;;;;;21.20;27.40;;;;;;1608870;73;1932;-65
2020/12/04 10:25:26;;;;;;;;;;;21.20;27.40;;;;;;1607182;73;708;-65
2020/12/04 10:27:28;;;;;;;;;;;21.20;27.40;;;;;;1589035;73;725;-64
2020/12/04 10:29:30;;;;;;;;;;;21.10;27.40;;;;;;1601305;73;672;-64
2020/12/04 10:31:32;;;;;;;;;;;21.20;27.30;;;;;;1599806;73;1167;-65
2020/12/04 10:33:34;;;;;;;;;;;21.20;27.20;;;;;;1608999;73;760;-65
2020/12/04 10:35:36;;;;;;;;;;;21.20;27.30;;;;;;1610043;73;774;-66
2020/12/04 10:37:38;;;;;;;;;;;21.20;27.30;;;;;;1610030;73;662;-66
2020/12/04 10:39:40;;;;;;;;;;;21.10;27.30;;;;;;1609986;72;1149;-67
2020/12/04 10:41:42;;;;;;;;;;;21.10;27.30;;;;;;1601161;72;800;-66
2020/12/04 10:43:44;;;;;;;;;;;21.20;27.30;;;;;;1605827;72;1917;-65
2020/12/04 10:45:46;;;;;;;;;;;21.10;27.30;;;;;;1608606;73;717;-66
2020/12/04 10:47:48;;;;;;;;;;;21.10;27.30;;;;;;1601544;72;699;-66
2020/12/04 10:49:50;;;;;;;;;;;21.10;27.30;;;;;;1603872;73;1099;-66
2020/12/04 10:51:55;;;;;;;;;;;21.10;27.20;;;;;;1606511;73;762;-67
2020/12/04 10:53:57;;;;;;;;;;;21.10;27.20;;;;;;1602728;73;686;-62
2020/12/04 10:55:59;;;;;;;;;;;21.00;27.20;;;;;;1609110;73;712;-63
2020/12/04 10:58:01;;;;;;;;;;;21.10;27.20;;;;;;1617281;73;791;-64
2020/12/04 11:00:04;;;;;;;;;;;21.00;27.20;;;;;;1606816;73;1198;-63
2020/12/04 11:02:16;;;;;;;;;;;21.00;27.20;;;;;;1607944;73;661;-66
2020/12/04 11:06:32;;;;;;;;;;;21.00;27.10;;;;;;1599469;73;1636;-66
2020/12/04 11:08:34;;;;;;;;;;;21.00;27.20;;;;;;1609261;73;722;-67
2020/12/04 11:10:36;;;;;;;;;;;21.00;27.30;;;;;;1610453;72;1122;-66
2020/12/04 11:12:38;;;;;;;;;;;21.00;27.30;;;;;;1602071;72;764;-64
2020/12/04 11:14:43;;;;;;;;;;;21.00;27.30;;;;;;1609830;72;808;-65
2020/12/04 11:16:43;;;;;;;;;;;21.00;27.40;;;;;;1608441;73;1603;-65
2020/12/04 11:18:45;;;;;;;;;;;21.00;27.40;;;;;;1609316;73;758;-66
2020/12/04 11:20:47;;;;;;;;;;;21.00;27.50;;;;;;1605674;72;1122;-66
2020/12/04 11:22:49;;;;;;;;;;;21.00;27.40;;;;;;1604972;73;697;-66
2020/12/04 11:24:51;;;;;;;;;;;21.00;27.50;;;;;;1608737;73;1926;-66
2020/12/04 11:26:53;;;;;;;;;;;21.00;27.40;;;;;;1610439;73;687;-65
2020/12/04 11:28:55;;;;;;;;;;;21.10;27.50;;;;;;1604583;73;661;-65
2020/12/04 11:30:57;;;;;;;;;;;21.00;27.40;;;;;;1604924;72;1141;-66
2020/12/04 11:32:59;;;;;;;;;;;21.10;27.60;;;;;;1601789;73;759;-66
2020/12/04 11:35:01;;;;;;;;;;;21.00;27.60;;;;;;1606953;73;763;-65
2020/12/04 11:37:02;;;;;;;;;;;21.10;27.60;;;;;;1604367;73;810;-64
2020/12/04 11:39:04;;;;;;;;;;;21.10;27.60;;;;;;1603659;73;628;-65
2020/12/04 11:41:07;;;;;;;;;;;21.10;27.70;;;;;;1607772;72;1120;-65
2020/12/04 11:43:09;;;;;;;;;;;21.10;27.70;;;;;;1614020;72;685;-64
2020/12/04 11:45:11;;;;;;;;;;;21.10;27.80;;;;;;1603891;72;1928;-65
2020/12/04 11:47:13;;;;;;;;;;;21.10;27.80;;;;;;1607534;72;661;-65
2020/12/04 11:49:15;;;;;;;;;;;21.10;27.80;;;;;;1610625;73;842;-64
2020/12/04 11:51:16;;;;;;;;;;;21.10;27.80;;;;;;1598722;72;1130;-64
2020/12/04 11:53:18;;;;;;;;;;;21.10;27.90;;;;;;1593532;73;725;-64
2020/12/04 11:55:20;;;;;;;;;;;21.10;28.00;;;;;;1596061;73;698;-65
2020/12/04 11:57:22;;;;;;;;;;;21.10;27.90;;;;;;1608462;73;702;-65
2020/12/04 11:59:24;;;;;;;;;;;21.10;27.90;;;;;;1613961;73;758;-65
2020/12/04 12:01:26;;;;;;;;;;;21.10;27.90;;;;;;1600088;72;1150;-64
2020/12/04 12:03:28;;;;;;;;;;;21.10;28.00;;;;;;1607530;72;1924;-66
2020/12/04 12:05:29;;;;;;;;;;;21.10;27.90;;;;;;1608696;73;746;-66
2020/12/04 12:07:31;;;;;;;;;;;21.10;27.80;;;;;;1605397;73;715;-65
2020/12/04 12:09:33;;;;;;;;;;;21.00;28.10;;;;;;1605318;73;781;-64
2020/12/04 12:11:35;;;;;;;;;;;21.00;28.60;;;;;;1610175;72;1121;-63
2020/12/04 12:13:37;;;;;;;;;;;21.00;28.90;;;;;;1608723;73;756;-64